sensor_id;sensor_type;location;lat;lon;timestamp;P1;durP1;ratioP1;P2;durP2;ratioP2
70228;SDS011;57617;51.988;5.854;2023-04-10T00:02:20;32.55;;;16.48;;
70228;SDS011;57617;51.988;5.854;2023-04-10T00:04:45;31.67;;;16.55;;
70228;SDS011;57617;51.988;5.854;2023-04-10T00:07:10;32.28;;;17.38;;
70228;SDS011;57617;51.988;5.854;2023-04-10T00:09:36;29.63;;;15.82;;
70228;SDS011;57617;51.988;5.854;2023-04-10T00:12:02;29.88;;;15.30;;
70228;SDS011;57617;51.988;5.854;2023-04-10T00:14:27;27.65;;;14.88;;
70228;SDS011;57617;51.988;5.854;2023-04-10T00:16:52;26.45;;;15.02;;
70228;SDS011;57617;51.988;5.854;2023-04-10T00:19:18;25.70;;;14.13;;
70228;SDS011;57617;51.988;5.854;2023-04-10T00:21:43;26.98;;;13.93;;
70228;SDS011;57617;51.988;5.854;2023-04-10T00:24:08;28.23;;;14.95;;
70228;SDS011;57617;51.988;5.854;2023-04-10T00:26:34;26.17;;;13.55;;
70228;SDS011;57617;51.988;5.854;2023-04-10T00:29:00;26.70;;;13.20;;
70228;SDS011;57617;51.988;5.854;2023-04-10T00:31:26;24.63;;;13.20;;
70228;SDS011;57617;51.988;5.854;2023-04-10T00:33:51;26.08;;;13.20;;
70228;SDS011;57617;51.988;5.854;2023-04-10T00:36:17;27.20;;;13.73;;
70228;SDS011;57617;51.988;5.854;2023-04-10T00:38:43;23.77;;;12.48;;
70228;SDS011;57617;51.988;5.854;2023-04-10T00:41:08;22.83;;;12.65;;
70228;SDS011;57617;51.988;5.854;2023-04-10T00:43:33;22.88;;;12.05;;
70228;SDS011;57617;51.988;5.854;2023-04-10T00:45:59;22.70;;;12.35;;
70228;SDS011;57617;51.988;5.854;2023-04-10T00:48:25;23.35;;;11.85;;
70228;SDS011;57617;51.988;5.854;2023-04-10T00:50:50;22.17;;;12.02;;
70228;SDS011;57617;51.988;5.854;2023-04-10T00:53:16;22.33;;;12.05;;
70228;SDS011;57617;51.988;5.854;2023-04-10T00:55:41;22.25;;;11.98;;
70228;SDS011;57617;51.988;5.854;2023-04-10T00:58:07;22.63;;;12.27;;
70228;SDS011;57617;51.988;5.854;2023-04-10T01:00:35;21.88;;;10.93;;
70228;SDS011;57617;51.988;5.854;2023-04-10T01:03:00;22.58;;;10.95;;
70228;SDS011;57617;51.988;5.854;2023-04-10T01:05:27;20.98;;;10.55;;
70228;SDS011;57617;51.988;5.854;2023-04-10T01:08:07;20.45;;;10.55;;
70228;SDS011;57617;51.988;5.854;2023-04-10T01:10:50;21.38;;;10.90;;
70228;SDS011;57617;51.988;5.854;2023-04-10T01:13:26;20.10;;;10.68;;
70228;SDS011;57617;51.988;5.854;2023-04-10T01:16:00;21.77;;;11.27;;
70228;SDS011;57617;51.988;5.854;2023-04-10T01:18:37;19.58;;;10.07;;
70228;SDS011;57617;51.988;5.854;2023-04-10T01:21:10;22.85;;;10.18;;
70228;SDS011;57617;51.988;5.854;2023-04-10T01:23:51;21.73;;;10.50;;
70228;SDS011;57617;51.988;5.854;2023-04-10T01:29:32;18.95;;;9.88;;
70228;SDS011;57617;51.988;5.854;2023-04-10T01:32:33;20.52;;;10.15;;
70228;SDS011;57617;51.988;5.854;2023-04-10T01:34:53;17.83;;;9.40;;
70228;SDS011;57617;51.988;5.854;2023-04-10T01:37:22;17.08;;;9.30;;
70228;SDS011;57617;51.988;5.854;2023-04-10T01:39:58;19.73;;;9.88;;
70228;SDS011;57617;51.988;5.854;2023-04-10T01:42:26;17.00;;;9.25;;
70228;SDS011;57617;51.988;5.854;2023-04-10T01:44:54;19.52;;;9.50;;
70228;SDS011;57617;51.988;5.854;2023-04-10T01:47:21;16.30;;;8.93;;
70228;SDS011;57617;51.988;5.854;2023-04-10T01:49:48;15.95;;;9.00;;
70228;SDS011;57617;51.988;5.854;2023-04-10T01:52:14;15.95;;;8.50;;
70228;SDS011;57617;51.988;5.854;2023-04-10T01:54:41;16.85;;;9.48;;
70228;SDS011;57617;51.988;5.854;2023-04-10T01:57:09;15.43;;;8.60;;
70228;SDS011;57617;51.988;5.854;2023-04-10T01:59:37;16.88;;;8.60;;
70228;SDS011;57617;51.988;5.854;2023-04-10T02:02:03;15.88;;;8.52;;
70228;SDS011;57617;51.988;5.854;2023-04-10T02:04:31;17.13;;;9.40;;
70228;SDS011;57617;51.988;5.854;2023-04-10T02:07:03;18.33;;;8.95;;
70228;SDS011;57617;51.988;5.854;2023-04-10T02:09:36;16.15;;;8.73;;
70228;SDS011;57617;51.988;5.854;2023-04-10T02:12:10;17.52;;;9.15;;
70228;SDS011;57617;51.988;5.854;2023-04-10T02:15:02;14.63;;;8.45;;
70228;SDS011;57617;51.988;5.854;2023-04-10T02:17:29;16.80;;;9.23;;
70228;SDS011;57617;51.988;5.854;2023-04-10T02:19:55;18.50;;;9.45;;
70228;SDS011;57617;51.988;5.854;2023-04-10T02:22:22;15.02;;;8.32;;
70228;SDS011;57617;51.988;5.854;2023-04-10T02:24:49;18.13;;;8.48;;
70228;SDS011;57617;51.988;5.854;2023-04-10T02:27:25;17.58;;;9.18;;
70228;SDS011;57617;51.988;5.854;2023-04-10T02:29:58;15.30;;;9.25;;
70228;SDS011;57617;51.988;5.854;2023-04-10T02:32:23;17.80;;;9.40;;
70228;SDS011;57617;51.988;5.854;2023-04-10T02:34:49;17.27;;;9.20;;
70228;SDS011;57617;51.988;5.854;2023-04-10T02:37:14;18.00;;;9.40;;
70228;SDS011;57617;51.988;5.854;2023-04-10T02:39:40;19.70;;;10.25;;
70228;SDS011;57617;51.988;5.854;2023-04-10T02:42:06;19.63;;;9.77;;
70228;SDS011;57617;51.988;5.854;2023-04-10T02:44:31;19.63;;;10.07;;
70228;SDS011;57617;51.988;5.854;2023-04-10T02:46:56;21.13;;;10.20;;
70228;SDS011;57617;51.988;5.854;2023-04-10T02:49:21;17.02;;;9.45;;
70228;SDS011;57617;51.988;5.854;2023-04-10T02:51:47;18.85;;;9.73;;
70228;SDS011;57617;51.988;5.854;2023-04-10T02:54:12;18.80;;;9.40;;
70228;SDS011;57617;51.988;5.854;2023-04-10T02:56:37;19.33;;;9.57;;
70228;SDS011;57617;51.988;5.854;2023-04-10T02:59:02;16.92;;;9.35;;
70228;SDS011;57617;51.988;5.854;2023-04-10T03:01:28;18.63;;;9.63;;
70228;SDS011;57617;51.988;5.854;2023-04-10T03:03:53;17.55;;;9.50;;
70228;SDS011;57617;51.988;5.854;2023-04-10T03:06:19;17.90;;;9.93;;
70228;SDS011;57617;51.988;5.854;2023-04-10T03:08:44;20.00;;;9.82;;
70228;SDS011;57617;51.988;5.854;2023-04-10T03:11:10;17.98;;;9.48;;
70228;SDS011;57617;51.988;5.854;2023-04-10T03:13:35;17.25;;;9.65;;
70228;SDS011;57617;51.988;5.854;2023-04-10T03:16:00;17.63;;;9.07;;
70228;SDS011;57617;51.988;5.854;2023-04-10T03:18:26;18.40;;;9.10;;
70228;SDS011;57617;51.988;5.854;2023-04-10T03:20:51;19.00;;;9.88;;
70228;SDS011;57617;51.988;5.854;2023-04-10T03:23:16;18.73;;;9.43;;
70228;SDS011;57617;51.988;5.854;2023-04-10T03:25:42;17.77;;;9.30;;
70228;SDS011;57617;51.988;5.854;2023-04-10T03:28:07;17.38;;;9.38;;
70228;SDS011;57617;51.988;5.854;2023-04-10T03:30:33;18.52;;;9.68;;
70228;SDS011;57617;51.988;5.854;2023-04-10T03:33:00;17.33;;;9.35;;
70228;SDS011;57617;51.988;5.854;2023-04-10T03:35:26;17.02;;;9.25;;
70228;SDS011;57617;51.988;5.854;2023-04-10T03:37:51;20.15;;;9.77;;
70228;SDS011;57617;51.988;5.854;2023-04-10T03:40:16;18.65;;;9.45;;
70228;SDS011;57617;51.988;5.854;2023-04-10T03:42:42;19.17;;;9.73;;
70228;SDS011;57617;51.988;5.854;2023-04-10T03:45:07;17.65;;;9.70;;
70228;SDS011;57617;51.988;5.854;2023-04-10T03:47:33;16.65;;;9.15;;
70228;SDS011;57617;51.988;5.854;2023-04-10T03:49:59;19.17;;;9.32;;
70228;SDS011;57617;51.988;5.854;2023-04-10T03:52:24;17.92;;;9.18;;
70228;SDS011;57617;51.988;5.854;2023-04-10T03:54:52;18.05;;;9.23;;
70228;SDS011;57617;51.988;5.854;2023-04-10T03:57:17;18.50;;;9.73;;
70228;SDS011;57617;51.988;5.854;2023-04-10T03:59:45;18.50;;;9.25;;
70228;SDS011;57617;51.988;5.854;2023-04-10T04:02:10;18.90;;;9.18;;
70228;SDS011;57617;51.988;5.854;2023-04-10T04:04:35;18.50;;;9.25;;
70228;SDS011;57617;51.988;5.854;2023-04-10T04:07:01;17.98;;;9.50;;
70228;SDS011;57617;51.988;5.854;2023-04-10T04:09:26;18.40;;;9.82;;
70228;SDS011;57617;51.988;5.854;2023-04-10T04:11:51;18.77;;;9.95;;
70228;SDS011;57617;51.988;5.854;2023-04-10T04:14:16;17.55;;;9.38;;
70228;SDS011;57617;51.988;5.854;2023-04-10T04:16:42;16.80;;;9.48;;
70228;SDS011;57617;51.988;5.854;2023-04-10T04:19:07;18.13;;;9.52;;
70228;SDS011;57617;51.988;5.854;2023-04-10T04:21:32;19.00;;;10.07;;
70228;SDS011;57617;51.988;5.854;2023-04-10T04:23:58;19.08;;;10.05;;
70228;SDS011;57617;51.988;5.854;2023-04-10T04:26:23;17.90;;;9.98;;
70228;SDS011;57617;51.988;5.854;2023-04-10T04:28:49;18.65;;;9.15;;
70228;SDS011;57617;51.988;5.854;2023-04-10T04:31:14;17.85;;;9.73;;
70228;SDS011;57617;51.988;5.854;2023-04-10T04:33:40;18.73;;;9.27;;
70228;SDS011;57617;51.988;5.854;2023-04-10T04:36:05;17.05;;;9.68;;
70228;SDS011;57617;51.988;5.854;2023-04-10T04:38:31;17.63;;;9.85;;
70228;SDS011;57617;51.988;5.854;2023-04-10T04:40:56;20.02;;;10.05;;
70228;SDS011;57617;51.988;5.854;2023-04-10T04:43:22;19.33;;;10.57;;
70228;SDS011;57617;51.988;5.854;2023-04-10T04:45:47;21.27;;;11.02;;
70228;SDS011;57617;51.988;5.854;2023-04-10T04:48:12;19.13;;;10.07;;
70228;SDS011;57617;51.988;5.854;2023-04-10T04:50:39;19.63;;;10.13;;
70228;SDS011;57617;51.988;5.854;2023-04-10T04:53:04;19.70;;;9.85;;
70228;SDS011;57617;51.988;5.854;2023-04-10T04:55:29;17.15;;;9.50;;
70228;SDS011;57617;51.988;5.854;2023-04-10T04:57:55;20.48;;;10.18;;
70228;SDS011;57617;51.988;5.854;2023-04-10T05:00:20;18.25;;;9.75;;
70228;SDS011;57617;51.988;5.854;2023-04-10T05:02:45;19.30;;;9.98;;
70228;SDS011;57617;51.988;5.854;2023-04-10T05:05:11;19.20;;;9.70;;
70228;SDS011;57617;51.988;5.854;2023-04-10T05:07:36;19.73;;;9.80;;
70228;SDS011;57617;51.988;5.854;2023-04-10T05:10:01;18.58;;;9.43;;
70228;SDS011;57617;51.988;5.854;2023-04-10T05:12:26;20.05;;;10.23;;
70228;SDS011;57617;51.988;5.854;2023-04-10T05:14:52;18.75;;;10.10;;
70228;SDS011;57617;51.988;5.854;2023-04-10T05:17:17;17.75;;;9.48;;
70228;SDS011;57617;51.988;5.854;2023-04-10T05:19:42;17.83;;;10.30;;
70228;SDS011;57617;51.988;5.854;2023-04-10T05:22:07;21.05;;;10.80;;
70228;SDS011;57617;51.988;5.854;2023-04-10T05:24:33;19.40;;;9.82;;
70228;SDS011;57617;51.988;5.854;2023-04-10T05:26:58;19.25;;;9.38;;
70228;SDS011;57617;51.988;5.854;2023-04-10T05:29:24;18.35;;;9.40;;
70228;SDS011;57617;51.988;5.854;2023-04-10T05:31:50;18.25;;;9.45;;
70228;SDS011;57617;51.988;5.854;2023-04-10T05:34:16;16.95;;;9.10;;
70228;SDS011;57617;51.988;5.854;2023-04-10T05:36:41;20.63;;;9.15;;
70228;SDS011;57617;51.988;5.854;2023-04-10T05:39:06;22.10;;;10.50;;
70228;SDS011;57617;51.988;5.854;2023-04-10T05:41:32;19.63;;;9.80;;
70228;SDS011;57617;51.988;5.854;2023-04-10T05:43:57;20.63;;;10.20;;
70228;SDS011;57617;51.988;5.854;2023-04-10T05:46:22;19.63;;;10.15;;
70228;SDS011;57617;51.988;5.854;2023-04-10T05:48:47;20.90;;;10.07;;
70228;SDS011;57617;51.988;5.854;2023-04-10T05:51:13;18.35;;;9.73;;
70228;SDS011;57617;51.988;5.854;2023-04-10T05:53:38;18.38;;;9.88;;
70228;SDS011;57617;51.988;5.854;2023-04-10T05:56:03;18.17;;;9.55;;
70228;SDS011;57617;51.988;5.854;2023-04-10T05:58:29;18.83;;;10.15;;
70228;SDS011;57617;51.988;5.854;2023-04-10T06:00:55;20.77;;;10.43;;
70228;SDS011;57617;51.988;5.854;2023-04-10T06:03:21;19.85;;;10.55;;
70228;SDS011;57617;51.988;5.854;2023-04-10T06:05:47;21.65;;;10.90;;
70228;SDS011;57617;51.988;5.854;2023-04-10T06:08:13;20.52;;;10.18;;
70228;SDS011;57617;51.988;5.854;2023-04-10T06:10:38;20.38;;;10.63;;
70228;SDS011;57617;51.988;5.854;2023-04-10T06:13:04;20.05;;;10.57;;
70228;SDS011;57617;51.988;5.854;2023-04-10T06:15:30;19.65;;;10.15;;
70228;SDS011;57617;51.988;5.854;2023-04-10T06:17:55;21.27;;;10.68;;
70228;SDS011;57617;51.988;5.854;2023-04-10T06:20:21;20.27;;;10.25;;
70228;SDS011;57617;51.988;5.854;2023-04-10T06:22:46;19.75;;;11.05;;
70228;SDS011;57617;51.988;5.854;2023-04-10T06:25:12;21.60;;;10.73;;
70228;SDS011;57617;51.988;5.854;2023-04-10T06:27:37;21.05;;;10.38;;
70228;SDS011;57617;51.988;5.854;2023-04-10T06:30:02;19.25;;;10.32;;
70228;SDS011;57617;51.988;5.854;2023-04-10T06:32:28;20.13;;;10.48;;
70228;SDS011;57617;51.988;5.854;2023-04-10T06:34:53;19.13;;;10.43;;
70228;SDS011;57617;51.988;5.854;2023-04-10T06:37:25;22.13;;;10.93;;
70228;SDS011;57617;51.988;5.854;2023-04-10T06:39:51;18.95;;;10.70;;
70228;SDS011;57617;51.988;5.854;2023-04-10T06:42:16;20.42;;;11.02;;
70228;SDS011;57617;51.988;5.854;2023-04-10T06:44:41;18.83;;;9.88;;
70228;SDS011;57617;51.988;5.854;2023-04-10T06:47:07;17.27;;;9.13;;
70228;SDS011;57617;51.988;5.854;2023-04-10T06:49:33;19.17;;;9.65;;
70228;SDS011;57617;51.988;5.854;2023-04-10T06:51:58;18.55;;;9.82;;
70228;SDS011;57617;51.988;5.854;2023-04-10T06:54:23;20.33;;;10.43;;
70228;SDS011;57617;51.988;5.854;2023-04-10T06:56:48;19.50;;;9.57;;
70228;SDS011;57617;51.988;5.854;2023-04-10T06:59:14;18.45;;;10.27;;
70228;SDS011;57617;51.988;5.854;2023-04-10T07:01:39;17.52;;;9.63;;
70228;SDS011;57617;51.988;5.854;2023-04-10T07:04:04;19.45;;;9.98;;
70228;SDS011;57617;51.988;5.854;2023-04-10T07:06:30;17.73;;;10.10;;
70228;SDS011;57617;51.988;5.854;2023-04-10T07:08:55;19.27;;;10.40;;
70228;SDS011;57617;51.988;5.854;2023-04-10T07:11:20;17.35;;;9.38;;
70228;SDS011;57617;51.988;5.854;2023-04-10T07:13:46;17.90;;;9.98;;
70228;SDS011;57617;51.988;5.854;2023-04-10T07:16:11;18.20;;;9.82;;
70228;SDS011;57617;51.988;5.854;2023-04-10T07:18:36;19.63;;;10.00;;
70228;SDS011;57617;51.988;5.854;2023-04-10T07:21:08;17.85;;;10.05;;
70228;SDS011;57617;51.988;5.854;2023-04-10T07:23:35;19.33;;;10.02;;
70228;SDS011;57617;51.988;5.854;2023-04-10T07:26:01;19.20;;;9.43;;
70228;SDS011;57617;51.988;5.854;2023-04-10T07:28:26;19.80;;;10.13;;
70228;SDS011;57617;51.988;5.854;2023-04-10T07:30:51;18.63;;;9.73;;
70228;SDS011;57617;51.988;5.854;2023-04-10T07:33:16;16.50;;;8.95;;
70228;SDS011;57617;51.988;5.854;2023-04-10T07:35:42;19.30;;;9.48;;
70228;SDS011;57617;51.988;5.854;2023-04-10T07:38:07;17.85;;;9.85;;
70228;SDS011;57617;51.988;5.854;2023-04-10T07:40:32;16.20;;;9.32;;
70228;SDS011;57617;51.988;5.854;2023-04-10T07:42:58;16.10;;;8.98;;
70228;SDS011;57617;51.988;5.854;2023-04-10T07:45:23;16.58;;;8.82;;
70228;SDS011;57617;51.988;5.854;2023-04-10T07:47:48;15.18;;;8.57;;
70228;SDS011;57617;51.988;5.854;2023-04-10T07:50:14;14.27;;;8.23;;
70228;SDS011;57617;51.988;5.854;2023-04-10T07:52:40;14.20;;;8.30;;
70228;SDS011;57617;51.988;5.854;2023-04-10T07:55:05;15.05;;;8.20;;
70228;SDS011;57617;51.988;5.854;2023-04-10T07:57:30;14.25;;;8.27;;
70228;SDS011;57617;51.988;5.854;2023-04-10T07:59:56;14.73;;;8.43;;
70228;SDS011;57617;51.988;5.854;2023-04-10T08:02:21;14.05;;;8.10;;
70228;SDS011;57617;51.988;5.854;2023-04-10T08:04:46;14.82;;;7.95;;
70228;SDS011;57617;51.988;5.854;2023-04-10T08:07:12;15.80;;;8.00;;
70228;SDS011;57617;51.988;5.854;2023-04-10T08:09:37;14.38;;;7.82;;
70228;SDS011;57617;51.988;5.854;2023-04-10T08:12:02;13.65;;;7.63;;
70228;SDS011;57617;51.988;5.854;2023-04-10T08:14:28;15.40;;;8.38;;
70228;SDS011;57617;51.988;5.854;2023-04-10T08:16:53;14.95;;;8.40;;
70228;SDS011;57617;51.988;5.854;2023-04-10T08:19:18;14.35;;;8.02;;
70228;SDS011;57617;51.988;5.854;2023-04-10T08:21:43;15.80;;;8.38;;
70228;SDS011;57617;51.988;5.854;2023-04-10T08:24:09;13.07;;;7.60;;
70228;SDS011;57617;51.988;5.854;2023-04-10T08:26:34;15.50;;;8.30;;
70228;SDS011;57617;51.988;5.854;2023-04-10T08:29:00;13.30;;;8.00;;
70228;SDS011;57617;51.988;5.854;2023-04-10T08:31:25;15.45;;;7.82;;
70228;SDS011;57617;51.988;5.854;2023-04-10T08:33:52;32.65;;;9.90;;
70228;SDS011;57617;51.988;5.854;2023-04-10T08:36:17;14.60;;;9.30;;
70228;SDS011;57617;51.988;5.854;2023-04-10T08:38:43;14.18;;;8.40;;
70228;SDS011;57617;51.988;5.854;2023-04-10T08:41:09;12.20;;;7.32;;
70228;SDS011;57617;51.988;5.854;2023-04-10T08:43:39;13.43;;;7.80;;
70228;SDS011;57617;51.988;5.854;2023-04-10T08:46:05;13.85;;;7.88;;
70228;SDS011;57617;51.988;5.854;2023-04-10T08:48:34;13.63;;;7.60;;
70228;SDS011;57617;51.988;5.854;2023-04-10T08:51:03;11.88;;;7.28;;
70228;SDS011;57617;51.988;5.854;2023-04-10T08:53:31;11.82;;;7.43;;
70228;SDS011;57617;51.988;5.854;2023-04-10T08:56:03;12.90;;;7.68;;
70228;SDS011;57617;51.988;5.854;2023-04-10T08:58:30;13.63;;;7.45;;
70228;SDS011;57617;51.988;5.854;2023-04-10T09:00:56;13.05;;;7.93;;
70228;SDS011;57617;51.988;5.854;2023-04-10T09:03:21;12.93;;;7.53;;
70228;SDS011;57617;51.988;5.854;2023-04-10T09:05:47;12.80;;;7.20;;
70228;SDS011;57617;51.988;5.854;2023-04-10T09:08:13;12.63;;;7.75;;
70228;SDS011;57617;51.988;5.854;2023-04-10T09:10:39;14.10;;;7.72;;
70228;SDS011;57617;51.988;5.854;2023-04-10T09:13:04;12.82;;;7.78;;
70228;SDS011;57617;51.988;5.854;2023-04-10T09:15:30;16.75;;;7.95;;
70228;SDS011;57617;51.988;5.854;2023-04-10T09:18:15;16.00;;;8.30;;
70228;SDS011;57617;51.988;5.854;2023-04-10T09:20:40;12.07;;;7.35;;
70228;SDS011;57617;51.988;5.854;2023-04-10T09:23:21;13.65;;;7.95;;
70228;SDS011;57617;51.988;5.854;2023-04-10T09:25:47;12.50;;;7.35;;
70228;SDS011;57617;51.988;5.854;2023-04-10T09:28:12;14.15;;;8.10;;
70228;SDS011;57617;51.988;5.854;2023-04-10T09:30:38;13.02;;;7.55;;
70228;SDS011;57617;51.988;5.854;2023-04-10T09:33:24;13.93;;;7.65;;
70228;SDS011;57617;51.988;5.854;2023-04-10T09:35:56;12.48;;;7.72;;
70228;SDS011;57617;51.988;5.854;2023-04-10T09:38:22;15.38;;;7.78;;
70228;SDS011;57617;51.988;5.854;2023-04-10T09:40:47;14.93;;;7.68;;
70228;SDS011;57617;51.988;5.854;2023-04-10T09:43:17;16.58;;;7.28;;
70228;SDS011;57617;51.988;5.854;2023-04-10T09:45:49;12.95;;;7.68;;
70228;SDS011;57617;51.988;5.854;2023-04-10T09:48:18;11.43;;;7.25;;
70228;SDS011;57617;51.988;5.854;2023-04-10T09:50:44;11.63;;;6.90;;
70228;SDS011;57617;51.988;5.854;2023-04-10T09:53:27;14.82;;;7.57;;
70228;SDS011;57617;51.988;5.854;2023-04-10T09:55:53;15.98;;;6.90;;
70228;SDS011;57617;51.988;5.854;2023-04-10T09:58:20;13.50;;;7.18;;
70228;SDS011;57617;51.988;5.854;2023-04-10T10:00:47;11.57;;;6.95;;
70228;SDS011;57617;51.988;5.854;2023-04-10T10:03:14;11.02;;;7.07;;
70228;SDS011;57617;51.988;5.854;2023-04-10T10:05:42;13.50;;;6.90;;
70228;SDS011;57617;51.988;5.854;2023-04-10T10:08:12;11.65;;;6.80;;
70228;SDS011;57617;51.988;5.854;2023-04-10T10:10:39;14.82;;;6.82;;
70228;SDS011;57617;51.988;5.854;2023-04-10T10:13:09;11.40;;;6.95;;
70228;SDS011;57617;51.988;5.854;2023-04-10T10:15:37;16.13;;;6.97;;
70228;SDS011;57617;51.988;5.854;2023-04-10T10:20:36;10.07;;;6.18;;
70228;SDS011;57617;51.988;5.854;2023-04-10T10:23:05;16.88;;;6.40;;
70228;SDS011;57617;51.988;5.854;2023-04-10T10:25:31;10.75;;;6.45;;
70228;SDS011;57617;51.988;5.854;2023-04-10T10:27:59;11.27;;;6.40;;
70228;SDS011;57617;51.988;5.854;2023-04-10T10:30:28;12.07;;;6.47;;
70228;SDS011;57617;51.988;5.854;2023-04-10T10:32:57;11.85;;;6.20;;
70228;SDS011;57617;51.988;5.854;2023-04-10T10:35:25;11.00;;;6.63;;
70228;SDS011;57617;51.988;5.854;2023-04-10T10:37:51;11.50;;;6.78;;
70228;SDS011;57617;51.988;5.854;2023-04-10T10:43:12;11.68;;;6.70;;
70228;SDS011;57617;51.988;5.854;2023-04-10T10:48:35;9.70;;;6.18;;
70228;SDS011;57617;51.988;5.854;2023-04-10T10:51:00;9.45;;;6.45;;
70228;SDS011;57617;51.988;5.854;2023-04-10T10:58:50;9.38;;;6.13;;
70228;SDS011;57617;51.988;5.854;2023-04-10T11:01:17;8.93;;;6.00;;
70228;SDS011;57617;51.988;5.854;2023-04-10T11:03:44;11.15;;;5.57;;
70228;SDS011;57617;51.988;5.854;2023-04-10T11:06:10;11.20;;;6.47;;
70228;SDS011;57617;51.988;5.854;2023-04-10T11:08:47;10.32;;;6.00;;
70228;SDS011;57617;51.988;5.854;2023-04-10T11:11:20;10.38;;;6.10;;
70228;SDS011;57617;51.988;5.854;2023-04-10T11:16:19;9.77;;;6.05;;
70228;SDS011;57617;51.988;5.854;2023-04-10T11:31:43;9.95;;;5.85;;
70228;SDS011;57617;51.988;5.854;2023-04-10T11:34:09;10.50;;;5.85;;
70228;SDS011;57617;51.988;5.854;2023-04-10T11:36:38;7.93;;;5.57;;
70228;SDS011;57617;51.988;5.854;2023-04-10T11:39:06;8.35;;;5.95;;
70228;SDS011;57617;51.988;5.854;2023-04-10T11:41:40;8.85;;;5.93;;
70228;SDS011;57617;51.988;5.854;2023-04-10T11:44:08;8.63;;;5.75;;
70228;SDS011;57617;51.988;5.854;2023-04-10T11:46:38;10.73;;;5.70;;
70228;SDS011;57617;51.988;5.854;2023-04-10T11:49:06;10.70;;;5.75;;
70228;SDS011;57617;51.988;5.854;2023-04-10T11:51:33;9.95;;;5.82;;
70228;SDS011;57617;51.988;5.854;2023-04-10T11:54:46;10.52;;;6.28;;
70228;SDS011;57617;51.988;5.854;2023-04-10T11:57:05;8.75;;;5.70;;
70228;SDS011;57617;51.988;5.854;2023-04-10T11:59:34;10.65;;;6.10;;
70228;SDS011;57617;51.988;5.854;2023-04-10T12:02:07;8.55;;;5.68;;
70228;SDS011;57617;51.988;5.854;2023-04-10T12:04:34;11.05;;;6.15;;
70228;SDS011;57617;51.988;5.854;2023-04-10T12:07:00;10.18;;;6.38;;
70228;SDS011;57617;51.988;5.854;2023-04-10T12:09:26;8.68;;;6.10;;
70228;SDS011;57617;51.988;5.854;2023-04-10T12:11:55;11.48;;;6.22;;
70228;SDS011;57617;51.988;5.854;2023-04-10T12:14:27;8.05;;;5.68;;
70228;SDS011;57617;51.988;5.854;2023-04-10T12:17:05;8.98;;;6.00;;
70228;SDS011;57617;51.988;5.854;2023-04-10T12:19:31;9.77;;;5.60;;
70228;SDS011;57617;51.988;5.854;2023-04-10T12:21:58;10.88;;;6.10;;
70228;SDS011;57617;51.988;5.854;2023-04-10T12:24:40;9.88;;;5.40;;
70228;SDS011;57617;51.988;5.854;2023-04-10T12:29:52;8.90;;;4.75;;
70228;SDS011;57617;51.988;5.854;2023-04-10T12:32:18;6.65;;;4.40;;
70228;SDS011;57617;51.988;5.854;2023-04-10T12:34:51;9.18;;;4.70;;
70228;SDS011;57617;51.988;5.854;2023-04-10T12:37:17;10.32;;;4.45;;
70228;SDS011;57617;51.988;5.854;2023-04-10T12:39:43;7.32;;;4.40;;
70228;SDS011;57617;51.988;5.854;2023-04-10T12:42:13;7.10;;;4.45;;
70228;SDS011;57617;51.988;5.854;2023-04-10T12:44:53;5.70;;;4.13;;
70228;SDS011;57617;51.988;5.854;2023-04-10T12:47:23;8.15;;;4.28;;
70228;SDS011;57617;51.988;5.854;2023-04-10T12:52:30;6.78;;;4.78;;
70228;SDS011;57617;51.988;5.854;2023-04-10T12:55:09;6.65;;;4.65;;
70228;SDS011;57617;51.988;5.854;2023-04-10T12:57:37;6.32;;;4.40;;
70228;SDS011;57617;51.988;5.854;2023-04-10T13:00:04;5.65;;;4.45;;
70228;SDS011;57617;51.988;5.854;2023-04-10T13:02:30;6.65;;;4.53;;
70228;SDS011;57617;51.988;5.854;2023-04-10T13:04:56;10.95;;;5.05;;
70228;SDS011;57617;51.988;5.854;2023-04-10T13:07:21;6.78;;;4.53;;
70228;SDS011;57617;51.988;5.854;2023-04-10T13:09:46;6.88;;;4.47;;
70228;SDS011;57617;51.988;5.854;2023-04-10T13:12:12;9.93;;;4.65;;
70228;SDS011;57617;51.988;5.854;2023-04-10T13:14:37;20.38;;;4.43;;
70228;SDS011;57617;51.988;5.854;2023-04-10T13:17:02;7.93;;;4.30;;
70228;SDS011;57617;51.988;5.854;2023-04-10T13:19:28;6.60;;;4.30;;
70228;SDS011;57617;51.988;5.854;2023-04-10T13:21:53;5.93;;;4.38;;
70228;SDS011;57617;51.988;5.854;2023-04-10T13:24:18;7.07;;;4.50;;
70228;SDS011;57617;51.988;5.854;2023-04-10T13:26:43;7.85;;;4.78;;
70228;SDS011;57617;51.988;5.854;2023-04-10T13:29:09;7.85;;;4.80;;
70228;SDS011;57617;51.988;5.854;2023-04-10T13:31:34;7.97;;;4.50;;
70228;SDS011;57617;51.988;5.854;2023-04-10T13:33:59;5.82;;;4.20;;
70228;SDS011;57617;51.988;5.854;2023-04-10T13:36:25;6.53;;;4.07;;
70228;SDS011;57617;51.988;5.854;2023-04-10T13:38:50;7.43;;;4.20;;
70228;SDS011;57617;51.988;5.854;2023-04-10T13:41:16;7.32;;;4.30;;
70228;SDS011;57617;51.988;5.854;2023-04-10T13:43:41;6.53;;;4.40;;
70228;SDS011;57617;51.988;5.854;2023-04-10T13:46:06;7.15;;;4.32;;
70228;SDS011;57617;51.988;5.854;2023-04-10T13:48:31;6.90;;;4.53;;
70228;SDS011;57617;51.988;5.854;2023-04-10T13:50:57;6.97;;;4.32;;
70228;SDS011;57617;51.988;5.854;2023-04-10T13:53:22;5.78;;;4.22;;
70228;SDS011;57617;51.988;5.854;2023-04-10T13:55:47;8.30;;;4.57;;
70228;SDS011;57617;51.988;5.854;2023-04-10T13:58:14;7.25;;;4.40;;
70228;SDS011;57617;51.988;5.854;2023-04-10T14:00:42;5.53;;;4.00;;
70228;SDS011;57617;51.988;5.854;2023-04-10T14:03:08;8.40;;;4.60;;
70228;SDS011;57617;51.988;5.854;2023-04-10T14:05:36;8.95;;;4.30;;
70228;SDS011;57617;51.988;5.854;2023-04-10T14:08:02;6.40;;;4.15;;
70228;SDS011;57617;51.988;5.854;2023-04-10T14:10:27;8.20;;;4.28;;
70228;SDS011;57617;51.988;5.854;2023-04-10T14:12:52;7.57;;;4.47;;
70228;SDS011;57617;51.988;5.854;2023-04-10T14:15:17;6.70;;;4.22;;
70228;SDS011;57617;51.988;5.854;2023-04-10T14:17:43;5.93;;;4.03;;
70228;SDS011;57617;51.988;5.854;2023-04-10T14:20:08;6.25;;;4.07;;
70228;SDS011;57617;51.988;5.854;2023-04-10T14:22:37;5.72;;;4.22;;
70228;SDS011;57617;51.988;5.854;2023-04-10T14:25:02;5.45;;;4.00;;
70228;SDS011;57617;51.988;5.854;2023-04-10T14:27:29;5.80;;;4.00;;
70228;SDS011;57617;51.988;5.854;2023-04-10T14:29:55;5.68;;;4.00;;
70228;SDS011;57617;51.988;5.854;2023-04-10T14:32:20;6.22;;;3.97;;
70228;SDS011;57617;51.988;5.854;2023-04-10T14:34:45;7.43;;;4.25;;
70228;SDS011;57617;51.988;5.854;2023-04-10T14:37:11;5.80;;;4.00;;
70228;SDS011;57617;51.988;5.854;2023-04-10T14:39:36;6.57;;;4.50;;
70228;SDS011;57617;51.988;5.854;2023-04-10T14:42:01;5.22;;;4.10;;
70228;SDS011;57617;51.988;5.854;2023-04-10T14:44:27;7.25;;;4.13;;
70228;SDS011;57617;51.988;5.854;2023-04-10T14:46:53;5.88;;;4.28;;
70228;SDS011;57617;51.988;5.854;2023-04-10T14:49:18;7.10;;;4.07;;
70228;SDS011;57617;51.988;5.854;2023-04-10T14:51:44;7.38;;;4.18;;
70228;SDS011;57617;51.988;5.854;2023-04-10T14:54:09;6.95;;;5.05;;
70228;SDS011;57617;51.988;5.854;2023-04-10T14:56:35;7.53;;;3.80;;
70228;SDS011;57617;51.988;5.854;2023-04-10T14:59:00;5.93;;;4.03;;
70228;SDS011;57617;51.988;5.854;2023-04-10T15:01:25;6.95;;;4.47;;
70228;SDS011;57617;51.988;5.854;2023-04-10T15:03:51;7.57;;;4.80;;
70228;SDS011;57617;51.988;5.854;2023-04-10T15:06:17;10.07;;;4.90;;
70228;SDS011;57617;51.988;5.854;2023-04-10T15:08:42;7.18;;;4.70;;
70228;SDS011;57617;51.988;5.854;2023-04-10T15:11:07;9.32;;;4.80;;